Time;durP1;ratioP1;P1;durP2;ratioP2;P2;SDS_P1;SDS_P2;PMS_P1;PMS_P2;Temp;Humidity;BMP_temperature;BMP_pressure;BME280_temperature;BME280_humidity;BME280_pressure;Samples;Min_cycle;Max_cycle;Signal;HPM_P1;HPM_P2
2022/11/22 00:00:46;;;;;;;648.00;612.60;;;6.60;99.90;;;;;;4942062;29;20465;-82
2022/11/22 00:03:13;;;;;;;651.13;615.07;;;6.50;99.90;;;;;;4941894;29;20461;-82
2022/11/22 00:05:40;;;;;;;663.87;628.57;;;6.60;99.90;;;;;;4941414;29;20963;-82
2022/11/22 00:08:06;;;;;;;667.80;630.10;;;6.50;99.90;;;;;;4942109;29;20492;-83
2022/11/22 00:10:34;;;;;;;664.37;626.97;;;6.50;99.90;;;;;;4941126;29;20463;-81
2022/11/22 00:13:02;;;;;;;675.77;637.87;;;6.50;99.90;;;;;;4941869;29;20519;-82
2022/11/22 00:15:29;;;;;;;680.70;642.13;;;6.50;99.90;;;;;;4941259;29;20826;-82
2022/11/22 00:17:56;;;;;;;681.60;641.97;;;6.50;99.90;;;;;;4941492;29;20548;-82
2022/11/22 00:20:23;;;;;;;688.27;646.57;;;6.40;99.90;;;;;;4941327;29;20463;-82
2022/11/22 00:22:49;;;;;;;696.67;653.97;;;6.50;99.90;;;;;;4942051;29;20472;-82
2022/11/22 00:25:16;;;;;;;713.40;668.80;;;6.50;99.90;;;;;;4941684;29;20464;-82
2022/11/22 00:27:43;;;;;;;713.43;668.77;;;6.50;99.90;;;;;;4941743;29;20491;-81
2022/11/22 00:30:11;;;;;;;710.03;667.00;;;6.50;99.90;;;;;;4941314;29;20460;-81
2022/11/22 00:32:38;;;;;;;713.50;669.20;;;6.50;99.90;;;;;;4941922;29;20464;-82
2022/11/22 00:35:06;;;;;;;718.57;673.40;;;6.50;99.90;;;;;;4941619;29;20466;-83
2022/11/22 00:37:33;;;;;;;711.87;668.87;;;6.50;99.90;;;;;;4941474;29;20476;-83
2022/11/22 00:39:59;;;;;;;712.07;667.20;;;6.50;99.90;;;;;;4941006;29;20456;-82
2022/11/22 00:42:26;;;;;;;722.43;677.00;;;6.50;99.90;;;;;;4941219;29;20460;-83
2022/11/22 00:44:53;;;;;;;734.90;687.67;;;6.50;99.90;;;;;;4941527;29;20456;-82
2022/11/22 00:47:21;;;;;;;732.73;683.83;;;6.50;99.90;;;;;;4940420;29;20499;-82
2022/11/22 00:49:48;;;;;;;737.57;689.33;;;6.50;99.90;;;;;;4941620;29;20453;-82
2022/11/22 00:52:14;;;;;;;734.43;686.50;;;6.50;99.90;;;;;;4940779;29;20464;-82
2022/11/22 00:54:41;;;;;;;734.23;686.20;;;6.60;99.90;;;;;;4940774;29;20460;-82
2022/11/22 00:57:08;;;;;;;724.17;676.07;;;6.60;99.90;;;;;;4940840;29;20563;-82
2022/11/22 00:59:35;;;;;;;722.73;674.33;;;6.60;99.90;;;;;;4941687;29;20479;-82
2022/11/22 01:02:01;;;;;;;718.27;669.87;;;6.60;99.90;;;;;;4941265;29;20456;-82
2022/11/22 01:04:29;;;;;;;729.23;680.33;;;6.60;99.90;;;;;;4941288;29;20460;-82
2022/11/22 01:06:56;;;;;;;729.17;680.43;;;6.70;99.90;;;;;;4940968;29;20481;-82
2022/11/22 01:09:24;;;;;;;722.70;673.97;;;6.60;99.90;;;;;;4941215;29;20461;-83
2022/11/22 01:11:51;;;;;;;725.97;677.90;;;6.60;99.90;;;;;;4941181;29;20460;-82
2022/11/22 01:14:18;;;;;;;716.67;669.50;;;6.50;99.90;;;;;;4940964;29;20456;-82
2022/11/22 01:16:45;;;;;;;717.43;671.30;;;6.40;99.90;;;;;;4940735;29;20506;-83
2022/11/22 01:19:12;;;;;;;722.73;675.40;;;6.40;99.90;;;;;;4941627;29;20465;-82
2022/11/22 01:21:41;;;;;;;716.03;672.67;;;6.40;99.90;;;;;;4941410;29;20460;-82
2022/11/22 01:24:07;;;;;;;701.10;659.57;;;6.50;99.90;;;;;;4941342;29;20464;-82
2022/11/22 01:26:34;;;;;;;701.93;660.73;;;6.40;99.90;;;;;;4940841;29;20472;-81
2022/11/22 01:29:01;;;;;;;688.70;648.03;;;6.30;99.90;;;;;;4941268;29;20460;-82
2022/11/22 01:31:28;;;;;;;672.97;632.17;;;6.30;99.90;;;;;;4940615;29;20456;-84
2022/11/22 01:33:55;;;;;;;682.10;642.90;;;6.20;99.90;;;;;;4941646;29;20453;-82
2022/11/22 01:36:22;;;;;;;697.00;655.30;;;6.10;99.90;;;;;;4941091;29;20449;-82
2022/11/22 01:38:50;;;;;;;695.27;652.67;;;6.10;99.90;;;;;;4941174;29;20452;-82
2022/11/22 01:41:17;;;;;;;702.47;659.57;;;6.00;99.90;;;;;;4940601;29;20468;-81
2022/11/22 01:43:44;;;;;;;693.57;651.87;;;6.00;99.90;;;;;;4940748;29;20817;-82
2022/11/22 01:46:18;;;;;;;699.07;656.87;;;6.00;99.90;;;;;;4940780;29;20465;-82
2022/11/22 01:48:50;;;;;;;713.33;668.77;;;5.80;99.90;;;;;;4940847;29;20488;-82
2022/11/22 01:51:23;;;;;;;729.50;681.30;;;5.60;99.90;;;;;;4940471;29;20845;-82
2022/11/22 01:53:53;;;;;;;740.53;689.47;;;5.60;99.90;;;;;;4940517;29;20468;-83
2022/11/22 01:56:21;;;;;;;755.30;701.03;;;5.50;99.90;;;;;;4940939;29;20457;-83
2022/11/22 01:58:54;;;;;;;757.83;700.67;;;5.40;99.90;;;;;;4944127;29;20464;-83
2022/11/22 02:01:21;;;;;;;751.20;691.67;;;5.50;99.90;;;;;;4944702;29;20475;-82
2022/11/22 02:03:52;;;;;;;762.60;701.80;;;5.60;99.90;;;;;;4944885;29;20811;-82
2022/11/22 02:06:19;;;;;;;763.33;702.53;;;5.50;99.90;;;;;;4944335;29;20460;-82
2022/11/22 02:08:55;;;;;;;753.43;692.40;;;5.60;99.90;;;;;;4944419;29;20480;-82
2022/11/22 02:11:24;;;;;;;735.07;677.57;;;5.70;99.90;;;;;;4944704;29;20451;-83
2022/11/22 02:13:52;;;;;;;727.63;673.03;;;5.80;99.90;;;;;;4943888;29;20467;-82
2022/11/22 02:16:19;;;;;;;724.87;671.27;;;5.90;99.90;;;;;;4944654;29;20457;-82
2022/11/22 02:18:46;;;;;;;714.03;662.20;;;5.90;99.90;;;;;;4944112;29;20477;-82
2022/11/22 02:21:13;;;;;;;716.67;665.13;;;6.00;99.90;;;;;;4943417;29;20456;-82
2022/11/22 02:23:47;;;;;;;724.37;672.77;;;5.80;99.90;;;;;;4943780;29;20456;-82
2022/11/22 02:26:16;;;;;;;722.30;671.60;;;5.80;99.90;;;;;;4944436;29;20462;-82
2022/11/22 02:28:43;;;;;;;721.60;670.90;;;5.80;99.90;;;;;;4944304;29;20488;-83
2022/11/22 02:31:30;;;;;;;715.97;665.37;;;5.80;99.90;;;;;;4944901;29;20463;-83
2022/11/22 02:33:56;;;;;;;720.73;670.17;;;5.80;99.90;;;;;;4943848;29;20463;-82
2022/11/22 02:36:23;;;;;;;724.20;673.77;;;5.80;99.90;;;;;;4943724;29;20468;-81
2022/11/22 02:38:50;;;;;;;711.50;663.20;;;5.80;99.90;;;;;;4943798;29;20537;-82
2022/11/22 02:41:18;;;;;;;699.20;653.20;;;6.00;99.90;;;;;;4943726;29;20467;-82
2022/11/22 02:43:47;;;;;;;701.17;656.10;;;5.70;99.90;;;;;;4943594;29;20976;-82
2022/11/22 02:46:19;;;;;;;710.23;664.27;;;5.60;99.90;;;;;;4943841;29;20463;-82
2022/11/22 02:48:46;;;;;;;708.10;660.27;;;5.90;99.90;;;;;;4943912;29;20481;-82
2022/11/22 02:51:15;;;;;;;695.37;648.90;;;5.70;99.90;;;;;;4943832;29;20835;-82
2022/11/22 02:53:44;;;;;;;703.20;655.90;;;5.70;99.90;;;;;;4942726;29;20486;-83
2022/11/22 02:56:14;;;;;;;712.27;664.30;;;5.40;99.90;;;;;;4942636;29;20475;-82
2022/11/22 02:58:43;;;;;;;727.70;677.83;;;5.40;99.90;;;;;;4942659;29;20477;-82
2022/11/22 03:01:10;;;;;;;721.87;671.67;;;5.30;99.90;;;;;;4943231;29;20453;-82
2022/11/22 03:03:37;;;;;;;734.57;683.73;;;5.10;99.90;;;;;;4943038;29;20464;-81
2022/11/22 03:06:04;;;;;;;746.40;694.10;;;5.20;99.90;;;;;;4943345;29;20484;-83
2022/11/22 03:08:32;;;;;;;744.53;691.47;;;5.00;99.90;;;;;;4942304;29;20492;-82
2022/11/22 03:10:58;;;;;;;755.17;699.97;;;4.90;99.90;;;;;;4942911;29;20460;-81
2022/11/22 03:13:26;;;;;;;778.27;721.17;;;4.90;99.90;;;;;;4943374;29;20461;-82
2022/11/22 03:15:54;;;;;;;762.73;707.93;;;5.10;99.90;;;;;;4943815;29;20852;-82
2022/11/22 03:18:21;;;;;;;757.90;702.07;;;5.10;99.90;;;;;;4943045;29;20473;-82
2022/11/22 03:20:47;;;;;;;740.67;686.97;;;5.30;99.90;;;;;;4943035;29;20453;-83
2022/11/22 03:23:14;;;;;;;726.63;673.47;;;5.40;99.90;;;;;;4942296;29;20456;-81
2022/11/22 03:25:41;;;;;;;728.87;677.30;;;5.40;99.90;;;;;;4942657;29;20994;-82
2022/11/22 03:28:08;;;;;;;729.77;679.27;;;5.50;99.90;;;;;;4942589;29;20519;-81
2022/11/22 03:30:38;;;;;;;713.77;663.67;;;5.50;99.90;;;;;;4941953;29;20461;-82
2022/11/22 03:33:06;;;;;;;692.93;645.03;;;5.40;99.90;;;;;;4943404;29;20457;-83
2022/11/22 03:35:33;;;;;;;695.57;648.57;;;5.40;99.90;;;;;;4942699;29;20467;-82
2022/11/22 03:38:00;;;;;;;692.30;645.40;;;5.30;99.90;;;;;;4943297;29;20483;-82
2022/11/22 03:40:27;;;;;;;675.20;630.43;;;5.40;99.90;;;;;;4943535;29;20469;-82
2022/11/22 03:42:53;;;;;;;667.63;624.77;;;5.40;99.90;;;;;;4942537;29;20456;-82
2022/11/22 03:45:20;;;;;;;671.47;629.67;;;5.30;99.90;;;;;;4943667;29;20547;-82
2022/11/22 03:47:47;;;;;;;670.83;628.30;;;5.40;99.90;;;;;;4942675;29;20488;-83
2022/11/22 03:50:15;;;;;;;648.27;608.43;;;5.40;99.90;;;;;;4942284;29;20840;-83
2022/11/22 03:52:42;;;;;;;631.03;593.60;;;5.30;99.90;;;;;;4942088;29;20457;-82
2022/11/22 03:55:09;;;;;;;632.20;596.37;;;5.20;99.90;;;;;;4942869;29;20460;-82
2022/11/22 03:57:36;;;;;;;627.20;591.40;;;5.30;99.90;;;;;;4942668;29;20510;-82
2022/11/22 04:00:11;;;;;;;612.40;579.47;;;5.30;99.90;;;;;;4943291;29;20461;-79
2022/11/22 04:02:37;;;;;;;594.53;564.13;;;5.20;99.90;;;;;;4942355;29;20464;-81
2022/11/22 04:05:05;;;;;;;584.27;554.00;;;5.20;99.90;;;;;;4942031;29;20955;-81
2022/11/22 04:07:33;;;;;;;556.53;529.63;;;5.20;99.90;;;;;;4942666;29;20483;-81
2022/11/22 04:09:59;;;;;;;530.73;505.67;;;5.20;99.90;;;;;;4942373;29;20464;-81
2022/11/22 04:12:26;;;;;;;524.07;499.03;;;5.30;99.90;;;;;;4942203;29;20468;-81
2022/11/22 04:15:07;;;;;;;514.87;491.77;;;5.10;99.90;;;;;;4941896;29;20461;-81
2022/11/22 04:17:40;;;;;;;490.50;468.83;;;5.10;99.90;;;;;;4941296;29;20476;-81
2022/11/22 04:23:00;;;;;;;484.97;462.97;;;5.00;99.90;;;;;;4941874;29;20439;-81
2022/11/22 04:25:27;;;;;;;481.03;460.07;;;5.00;99.90;;;;;;4941860;29;20461;-81
2022/11/22 04:27:53;;;;;;;481.10;459.23;;;4.90;99.90;;;;;;4941468;29;20489;-81
2022/11/22 04:30:20;;;;;;;469.80;447.97;;;4.90;99.90;;;;;;4941678;29;20460;-81
2022/11/22 04:32:46;;;;;;;464.87;442.57;;;4.90;99.90;;;;;;4941814;29;20974;-81
2022/11/22 04:35:17;;;;;;;449.27;428.37;;;4.90;99.90;;;;;;4941855;29;20460;-81
2022/11/22 04:37:50;;;;;;;425.07;406.67;;;5.00;99.90;;;;;;4941693;29;20245;-81
2022/11/22 04:40:18;;;;;;;405.87;388.60;;;5.00;99.90;;;;;;4941691;29;20512;-81
2022/11/22 04:45:29;;;;;;;393.33;377.53;;;5.00;99.90;;;;;;4941436;29;20439;-81
2022/11/22 04:47:59;;;;;;;392.53;376.43;;;5.00;99.90;;;;;;4941720;29;20879;-81
2022/11/22 04:53:11;;;;;;;429.57;411.17;;;4.60;99.90;;;;;;4941561;29;20492;-81
2022/11/22 04:55:40;;;;;;;462.50;442.03;;;4.60;99.90;;;;;;4941832;29;20467;-81
2022/11/22 04:58:06;;;;;;;473.03;451.77;;;4.60;99.90;;;;;;4941054;29;20863;-81
2022/11/22 05:00:33;;;;;;;316.57;303.57;;;4.70;99.90;;;;;;4940568;29;20456;-81
2022/11/22 05:03:00;;;;;;;314.37;301.00;;;4.50;99.90;;;;;;4941054;29;20840;-81
2022/11/22 05:05:27;;;;;;;341.30;326.27;;;4.40;99.90;;;;;;4942085;29;20468;-81
2022/11/22 05:07:54;;;;;;;379.43;363.60;;;4.30;99.90;;;;;;4941480;29;20491;-81
2022/11/22 05:10:21;;;;;;;407.13;389.00;;;4.40;99.90;;;;;;4941234;29;20461;-81
2022/11/22 05:12:49;;;;;;;399.53;381.20;;;4.30;99.90;;;;;;4941119;29;20461;-81
2022/11/22 05:15:15;;;;;;;408.33;388.67;;;4.50;99.90;;;;;;4941288;29;21033;-81
2022/11/22 05:17:42;;;;;;;365.87;349.77;;;4.70;99.90;;;;;;4941208;29;20481;-81
2022/11/22 05:20:10;;;;;;;290.60;278.00;;;4.80;99.90;;;;;;4941153;29;20495;-81
2022/11/22 05:25:21;;;;;;;226.97;217.47;;;4.30;99.90;;;;;;4939285;29;20528;-81
2022/11/22 05:27:53;;;;;;;243.77;234.53;;;4.00;99.90;;;;;;4940854;29;20485;-81
2022/11/22 05:30:19;;;;;;;311.67;299.57;;;3.80;99.90;;;;;;4940418;29;20453;-80
2022/11/22 05:32:46;;;;;;;376.20;361.03;;;3.60;99.90;;;;;;4945665;29;20456;-81
2022/11/22 05:35:13;;;;;;;436.67;418.37;;;3.50;99.90;;;;;;4946681;29;20456;-81
2022/11/22 05:37:40;;;;;;;496.20;473.97;;;3.20;99.90;;;;;;4946972;29;20476;-81
2022/11/22 05:40:08;;;;;;;521.40;499.00;;;3.10;99.90;;;;;;4947072;29;20460;-81
2022/11/22 05:42:35;;;;;;;522.20;499.23;;;2.90;99.90;;;;;;4946885;29;20468;-80
2022/11/22 05:45:03;;;;;;;559.27;533.53;;;2.70;99.90;;;;;;4947060;29;20476;-81
2022/11/22 05:47:33;;;;;;;625.20;594.80;;;2.50;99.90;;;;;;4946796;29;20492;-81
2022/11/22 05:50:00;;;;;;;696.37;658.83;;;2.30;99.90;;;;;;4946907;29;20491;-81
2022/11/22 05:52:27;;;;;;;739.27;695.77;;;2.30;99.90;;;;;;4947024;29;20478;-81
2022/11/22 05:54:53;;;;;;;781.77;732.37;;;2.20;99.90;;;;;;4946913;29;20991;-81
2022/11/22 05:57:20;;;;;;;785.13;730.60;;;2.00;99.90;;;;;;4946901;29;20491;-81
2022/11/22 05:59:47;;;;;;;786.17;729.03;;;1.90;99.90;;;;;;4946307;29;20477;-80
2022/11/22 06:02:15;;;;;;;784.03;723.70;;;2.00;99.90;;;;;;4946187;29;20461;-81
2022/11/22 06:04:41;;;;;;;783.03;719.43;;;2.00;99.90;;;;;;4946831;29;20456;-81
2022/11/22 06:07:08;;;;;;;774.03;708.03;;;2.10;99.90;;;;;;4946816;29;20479;-81
2022/11/22 06:09:35;;;;;;;772.70;704.10;;;2.20;99.90;;;;;;4946812;29;20488;-81
2022/11/22 06:12:02;;;;;;;763.07;694.97;;;2.40;99.90;;;;;;4946761;29;20456;-81
2022/11/22 06:14:28;;;;;;;761.73;693.73;;;2.30;99.90;;;;;;4947797;29;20452;-81
2022/11/22 06:16:55;;;;;;;764.23;695.97;;;2.30;99.90;;;;;;4946442;29;20502;-81
2022/11/22 06:19:23;;;;;;;756.70;687.40;;;2.40;99.90;;;;;;4947190;29;20459;-81
2022/11/22 06:21:50;;;;;;;739.60;670.50;;;2.50;99.90;;;;;;4946429;29;20456;-81
2022/11/22 06:24:17;;;;;;;754.57;685.07;;;2.50;99.90;;;;;;4947063;29;20461;-81
2022/11/22 06:26:44;;;;;;;746.47;677.73;;;2.50;99.90;;;;;;4946931;29;20555;-81
2022/11/22 06:29:10;;;;;;;747.97;678.40;;;2.60;99.90;;;;;;4945899;29;20481;-80
2022/11/22 06:31:37;;;;;;;751.80;683.70;;;2.70;99.90;;;;;;4946187;29;20453;-80
2022/11/22 06:34:05;;;;;;;753.93;685.27;;;2.90;99.90;;;;;;4945739;29;20463;-80
2022/11/22 06:36:34;;;;;;;744.37;676.07;;;2.90;99.90;;;;;;4945965;29;20467;-81
2022/11/22 06:39:02;;;;;;;748.17;679.60;;;3.00;99.90;;;;;;4944623;29;20459;-80
2022/11/22 06:41:32;;;;;;;754.47;685.20;;;2.90;99.90;;;;;;4944299;29;20835;-81
2022/11/22 06:43:59;;;;;;;750.57;681.30;;;2.90;99.90;;;;;;4940572;29;20460;-80
2022/11/22 06:46:27;;;;;;;761.10;693.30;;;3.00;99.90;;;;;;4940314;29;20461;-80
2022/11/22 06:48:54;;;;;;;751.43;683.87;;;3.00;99.90;;;;;;4939963;29;20485;-80
2022/11/22 06:51:22;;;;;;;761.40;693.27;;;3.00;99.90;;;;;;4940844;29;20457;-81
2022/11/22 06:53:51;;;;;;;761.70;695.30;;;3.00;99.90;;;;;;4944578;29;20467;-80
2022/11/22 06:56:20;;;;;;;776.43;708.70;;;3.00;99.90;;;;;;4960073;29;20977;-81
2022/11/22 06:58:47;;;;;;;760.23;693.97;;;3.00;99.90;;;;;;4959758;28;20878;-79
2022/11/22 07:01:16;;;;;;;755.00;689.30;;;3.10;99.90;;;;;;4957746;29;20622;-81
2022/11/22 07:03:43;;;;;;;753.20;687.80;;;3.10;99.90;;;;;;4959989;29;20482;-80
2022/11/22 07:06:12;;;;;;;758.53;693.60;;;3.10;99.90;;;;;;4959588;29;20463;-80
2022/11/22 07:08:39;;;;;;;754.23;689.80;;;3.10;99.90;;;;;;4958435;28;20487;-81
2022/11/22 07:11:09;;;;;;;761.17;697.27;;;3.00;99.90;;;;;;4957469;29;20460;-80
2022/11/22 07:13:36;;;;;;;764.23;701.37;;;3.00;99.90;;;;;;4958549;29;20862;-81
2022/11/22 07:16:05;;;;;;;767.87;705.03;;;3.00;99.90;;;;;;4958904;29;20462;-81
2022/11/22 07:18:32;;;;;;;755.47;693.00;;;3.00;99.90;;;;;;4959420;28;20491;-81
2022/11/22 07:21:04;;;;;;;762.63;699.67;;;3.10;99.90;;;;;;4959363;29;20456;-80
2022/11/22 07:23:31;;;;;;;757.60;694.73;;;3.10;99.90;;;;;;4959411;29;20829;-81
2022/11/22 07:25:58;;;;;;;756.27;694.03;;;3.10;99.90;;;;;;4958964;29;20459;-80
2022/11/22 07:28:26;;;;;;;748.83;687.17;;;3.10;99.90;;;;;;4958838;28;20845;-81
2022/11/22 07:30:53;;;;;;;758.97;696.80;;;3.20;99.90;;;;;;4958970;29;20464;-81
2022/11/22 07:33:20;;;;;;;752.87;691.57;;;3.20;99.90;;;;;;4957594;29;20471;-81
2022/11/22 07:35:47;;;;;;;750.20;690.20;;;3.30;99.90;;;;;;4958707;29;20459;-81
2022/11/22 07:38:13;;;;;;;741.37;680.57;;;3.40;99.90;;;;;;4958460;28;20886;-80
2022/11/22 07:40:40;;;;;;;744.37;684.50;;;3.40;99.90;;;;;;4958485;29;20458;-81
2022/11/22 07:43:07;;;;;;;751.50;692.77;;;3.50;99.90;;;;;;4958717;29;20823;-81
2022/11/22 07:45:35;;;;;;;744.40;686.20;;;3.50;99.90;;;;;;4958702;29;20460;-81
2022/11/22 07:48:02;;;;;;;747.97;689.60;;;3.60;99.90;;;;;;4959023;28;20491;-81
2022/11/22 07:50:29;;;;;;;741.97;685.17;;;3.70;99.90;;;;;;4959290;29;20487;-81
2022/11/22 07:52:56;;;;;;;733.53;678.47;;;3.80;99.90;;;;;;4948307;29;20473;-81
2022/11/22 07:55:24;;;;;;;736.77;682.20;;;3.90;99.90;;;;;;4939043;29;20831;-81
2022/11/22 07:57:51;;;;;;;724.90;671.60;;;4.00;99.90;;;;;;4940388;29;20489;-81
2022/11/22 08:00:18;;;;;;;730.23;676.87;;;4.00;99.90;;;;;;4938683;29;20457;-78
2022/11/22 08:02:46;;;;;;;734.37;681.87;;;4.00;99.90;;;;;;4939732;29;20461;-81
2022/11/22 08:05:13;;;;;;;731.50;680.00;;;4.10;99.90;;;;;;4939427;29;20465;-80
2022/11/22 08:07:45;;;;;;;740.03;688.50;;;4.10;99.90;;;;;;4937065;29;20476;-80
2022/11/22 08:10:11;;;;;;;709.43;658.57;;;4.20;99.90;;;;;;4936819;29;20481;-80
2022/11/22 08:12:38;;;;;;;704.60;654.30;;;4.20;99.90;;;;;;4937492;29;20460;-81
2022/11/22 08:15:06;;;;;;;712.03;661.40;;;4.20;99.90;;;;;;4938645;29;20940;-81
2022/11/22 08:17:32;;;;;;;709.53;659.63;;;4.30;99.90;;;;;;4939722;29;20476;-81
2022/11/22 08:20:00;;;;;;;701.07;651.87;;;4.50;99.90;;;;;;4938659;29;20449;-81
2022/11/22 08:22:27;;;;;;;685.53;637.77;;;4.60;99.90;;;;;;4938154;29;20456;-81
2022/11/22 08:24:54;;;;;;;676.70;631.00;;;4.90;99.90;;;;;;4938514;29;20965;-81
2022/11/22 08:27:20;;;;;;;650.57;607.40;;;5.10;99.90;;;;;;4937166;29;21025;-80
2022/11/22 08:29:47;;;;;;;614.40;578.40;;;5.20;99.90;;;;;;4937096;29;20488;-81
2022/11/22 08:32:14;;;;;;;567.33;535.50;;;5.40;99.90;;;;;;4939041;29;20459;-81
2022/11/22 08:34:40;;;;;;;497.47;472.17;;;5.50;99.90;;;;;;4937051;29;20464;-81
2022/11/22 08:37:08;;;;;;;421.53;401.60;;;5.60;99.90;;;;;;4936706;29;21011;-80
2022/11/22 08:39:35;;;;;;;370.20;352.35;;;5.80;99.90;;;;;;4936991;29;20476;-80
2022/11/22 08:42:02;;;;;;;348.10;332.10;;;6.00;99.90;;;;;;4938066;29;20308;-80
2022/11/22 08:44:28;;;;;;;328.20;313.93;;;6.10;99.90;;;;;;4939289;29;20457;-81
2022/11/22 08:46:55;;;;;;;249.77;238.47;;;6.20;99.90;;;;;;4939773;29;20489;-81
2022/11/22 08:49:22;;;;;;;203.57;195.37;;;6.20;99.90;;;;;;4940298;29;20492;-81
2022/11/22 08:51:49;;;;;;;145.30;138.60;;;6.10;99.90;;;;;;4937423;29;20865;-81
2022/11/22 08:54:17;;;;;;;109.67;105.20;;;6.20;99.90;;;;;;4939776;29;20460;-81
2022/11/22 08:56:43;;;;;;;89.70;86.13;;;6.10;99.90;;;;;;4938629;29;20480;-80
2022/11/22 08:59:10;;;;;;;52.73;49.40;;;6.10;99.90;;;;;;4939826;29;20453;-81
2022/11/22 09:01:37;;;;;;;74.60;71.63;;;6.10;99.90;;;;;;4938938;29;20460;-80
2022/11/22 09:04:04;;;;;;;60.50;58.03;;;6.10;99.90;;;;;;4937937;29;20469;-84
2022/11/22 09:06:31;;;;;;;25.03;23.73;;;6.20;99.90;;;;;;4938747;29;20468;-81
2022/11/22 09:08:58;;;;;;;21.03;19.13;;;6.30;99.90;;;;;;4939057;29;20485;-81
2022/11/22 09:11:26;;;;;;;16.00;15.00;;;6.40;99.90;;;;;;4939535;29;20461;-81
2022/11/22 09:13:53;;;;;;;12.37;9.53;;;6.30;99.90;;;;;;4939201;29;20879;-81
2022/11/22 09:16:20;;;;;;;8.73;7.63;;;6.30;99.90;;;;;;4938470;29;20467;-80
2022/11/22 09:18:47;;;;;;;12.20;9.53;;;6.30;99.90;;;;;;4937599;29;20476;-81
2022/11/22 09:21:16;;;;;;;12.73;7.97;;;6.30;99.90;;;;;;4939311;29;20456;-81
2022/11/22 09:23:44;;;;;;;12.40;11.60;;;6.40;99.90;;;;;;4940116;29;20456;-81
2022/11/22 09:26:14;;;;;;;13.10;12.00;;;6.50;99.90;;;;;;4938173;29;20473;-81
2022/11/22 09:28:42;;;;;;;12.90;11.83;;;6.50;99.90;;;;;;4939303;29;20488;-81
2022/11/22 09:31:11;;;;;;;6.70;6.10;;;6.80;99.90;;;;;;4938121;29;20549;-80
2022/11/22 09:33:39;;;;;;;8.97;7.23;;;6.80;99.90;;;;;;4936244;29;20985;-80
2022/11/22 09:36:07;;;;;;;13.07;3.80;;;6.90;99.90;;;;;;4936605;29;20464;-81
2022/11/22 09:38:35;;;;;;;8.10;7.30;;;7.00;99.90;;;;;;4938712;29;20483;-80
2022/11/22 09:41:10;;;;;;;10.50;5.93;;;7.10;99.90;;;;;;4936861;29;20463;-81
2022/11/22 09:43:45;;;;;;;10.67;7.37;;;7.20;99.90;;;;;;4940230;29;20819;-81
2022/11/22 09:46:23;;;;;;;6.20;5.50;;;7.40;99.90;;;;;;4938966;29;20467;-80
2022/11/22 09:49:16;;;;;;;7.00;6.33;;;7.70;99.90;;;;;;4938104;29;20464;-80
2022/11/22 09:51:49;;;;;;;11.33;4.67;;;8.00;99.90;;;;;;4938038;29;20453;-81
2022/11/22 09:54:19;;;;;;;10.20;5.50;;;8.20;99.90;;;;;;4939647;29;20460;-81
2022/11/22 09:56:47;;;;;;;11.53;5.40;;;8.40;99.90;;;;;;4938886;29;20491;-81
2022/11/22 09:59:19;;;;;;;19.87;4.73;;;8.30;99.90;;;;;;4939367;29;20457;-81
2022/11/22 10:01:51;;;;;;;7.20;2.17;;;8.20;99.90;;;;;;4989826;23;20499;-86
2022/11/22 10:04:22;;;;;;;5.23;2.60;;;8.00;99.90;;;;;;4977828;28;20456;-86
2022/11/22 10:06:54;;;;;;;8.37;2.30;;;7.90;99.90;;;;;;4978520;28;20462;-86
2022/11/22 10:09:30;;;;;;;8.03;1.80;;;7.70;99.90;;;;;;4977953;28;20478;-86
2022/11/22 10:12:02;;;;;;;9.53;2.73;;;7.40;99.90;;;;;;4977822;28;20475;-86
2022/11/22 10:14:40;;;;;;;4.97;2.20;;;7.40;99.90;;;;;;4978185;28;20466;-86
2022/11/22 10:17:21;;;;;;;10.63;2.50;;;7.50;99.90;;;;;;4977711;28;20864;-86
2022/11/22 10:19:57;;;;;;;4.70;1.70;;;7.50;99.90;;;;;;4981755;28;20450;-87
2022/11/22 10:22:28;;;;;;;8.27;2.03;;;7.60;99.90;;;;;;4981746;28;20834;-85
2022/11/22 10:24:55;;;;;;;8.27;2.80;;;7.70;99.90;;;;;;4981942;28;20979;-86
2022/11/22 10:27:21;;;;;;;4.13;1.63;;;7.80;99.90;;;;;;4981246;28;20465;-86
2022/11/22 10:29:54;;;;;;;7.10;1.90;;;7.90;99.90;;;;;;4981119;28;20486;-86
2022/11/22 10:32:28;;;;;;;7.70;2.17;;;7.90;99.90;;;;;;4981145;28;20486;-86
2022/11/22 10:35:20;;;;;;;4.30;2.10;;;8.00;99.90;;;;;;4981438;28;20473;-84
2022/11/22 10:37:55;;;;;;;6.60;2.90;;;8.10;99.90;;;;;;4980800;28;20459;-84
2022/11/22 10:40:29;;;;;;;6.03;2.63;;;8.10;99.90;;;;;;4981130;28;20454;-83
2022/11/22 10:43:15;;;;;;;5.03;1.97;;;8.20;99.90;;;;;;4981307;28;20461;-84
2022/11/22 10:45:46;;;;;;;4.63;1.93;;;8.30;99.90;;;;;;4981120;28;20984;-84
2022/11/22 10:48:23;;;;;;;7.83;1.87;;;8.40;99.90;;;;;;4980690;28;20463;-83
2022/11/22 10:50:59;;;;;;;5.70;1.80;;;8.40;99.90;;;;;;4981309;28;20486;-84
2022/11/22 10:53:47;;;;;;;7.17;2.10;;;8.60;99.90;;;;;;4982220;28;20459;-84
2022/11/22 10:56:21;;;;;;;5.03;1.70;;;8.60;99.90;;;;;;4980932;28;20452;-83
2022/11/22 10:59:03;;;;;;;7.27;1.60;;;8.60;99.90;;;;;;4981876;28;20451;-84
2022/11/22 11:01:38;;;;;;;5.30;1.70;;;8.60;99.90;;;;;;4980707;28;20497;-83
2022/11/22 11:04:10;;;;;;;5.70;1.47;;;8.60;99.90;;;;;;4981731;28;20455;-84
2022/11/22 11:06:41;;;;;;;3.30;1.10;;;8.50;99.90;;;;;;4986167;28;20455;-83
2022/11/22 11:09:13;;;;;;;4.93;1.60;;;8.60;99.90;;;;;;4998463;28;20451;-84
2022/11/22 11:11:41;;;;;;;6.40;1.90;;;8.60;99.90;;;;;;4994743;28;20467;-84
2022/11/22 11:14:19;;;;;;;4.67;1.20;;;8.60;99.90;;;;;;4996846;28;20451;-82
2022/11/22 11:16:46;;;;;;;5.50;1.40;;;8.50;99.90;;;;;;4991098;28;20446;-83
2022/11/22 11:19:18;;;;;;;5.27;1.30;;;8.50;99.90;;;;;;4982324;28;20458;-83
2022/11/22 11:21:45;;;;;;;6.17;1.63;;;8.80;99.90;;;;;;4981284;28;20557;-83
2022/11/22 11:24:14;;;;;;;5.07;1.20;;;8.80;99.90;;;;;;4981053;28;20466;-83
2022/11/22 11:26:43;;;;;;;3.93;1.20;;;8.80;99.90;;;;;;4980398;28;20458;-83
2022/11/22 11:29:43;;;;;;;3.83;1.40;;;8.80;99.90;;;;;;4980135;28;20451;-83
2022/11/22 11:32:12;;;;;;;4.93;1.30;;;8.90;99.90;;;;;;4920363;29;20473;-83
2022/11/22 11:34:43;;;;;;;6.83;1.50;;;9.00;99.90;;;;;;4967941;28;20466;-83
2022/11/22 11:37:25;;;;;;;3.73;1.20;;;9.10;99.90;;;;;;4980104;28;20954;-83
2022/11/22 11:39:52;;;;;;;8.50;1.30;;;9.20;99.90;;;;;;4979305;28;20475;-83
2022/11/22 11:42:24;;;;;;;7.87;1.27;;;9.20;99.90;;;;;;4980001;28;20874;-83
2022/11/22 11:44:51;;;;;;;5.63;1.70;;;9.20;99.90;;;;;;4979591;28;20451;-82
2022/11/22 11:47:19;;;;;;;4.70;1.30;;;9.20;99.90;;;;;;4979750;28;20455;-83
2022/11/22 11:49:51;;;;;;;3.77;1.13;;;9.10;99.90;;;;;;4978773;28;20512;-85
2022/11/22 11:52:22;;;;;;;4.17;1.07;;;9.10;99.90;;;;;;4977662;28;20479;-85
2022/11/22 11:54:52;;;;;;;3.60;1.00;;;9.00;99.90;;;;;;4978210;28;20455;-81
2022/11/22 11:57:21;;;;;;;9.03;1.47;;;9.00;99.90;;;;;;4978721;28;20459;-84
2022/11/22 11:59:50;;;;;;;3.53;1.00;;;9.00;99.90;;;;;;4978217;28;20458;-85
2022/11/22 12:02:21;;;;;;;4.60;1.30;;;9.20;99.90;;;;;;4978099;28;20486;-84
2022/11/22 12:04:51;;;;;;;3.97;1.20;;;9.70;99.90;;;;;;4979011;28;20866;-84
2022/11/22 12:07:22;;;;;;;3.43;1.00;;;9.90;99.50;;;;;;4979281;28;20463;-84
2022/11/22 12:09:50;;;;;;;5.63;1.00;;;10.20;98.70;;;;;;4978228;28;20487;-83
2022/11/22 12:12:37;;;;;;;2.87;0.73;;;10.10;97.70;;;;;;4978336;28;20486;-84
2022/11/22 12:15:15;;;;;;;4.77;1.40;;;10.10;98.50;;;;;;4978413;28;21000;-85
2022/11/22 12:17:49;;;;;;;5.20;1.20;;;10.10;97.30;;;;;;4979097;28;20455;-85
2022/11/22 12:20:20;;;;;;;3.20;1.10;;;10.10;97.60;;;;;;4978644;28;20455;-84
2022/11/22 12:22:58;;;;;;;6.83;1.40;;;10.10;97.40;;;;;;4978884;28;20455;-83
2022/11/22 12:25:31;;;;;;;3.17;1.00;;;10.10;97.70;;;;;;4978527;28;20454;-84
2022/11/22 12:28:03;;;;;;;5.53;1.03;;;9.90;97.10;;;;;;4978426;28;20467;-83
2022/11/22 12:30:32;;;;;;;4.10;1.23;;;9.70;97.90;;;;;;4978135;28;20851;-85
2022/11/22 12:33:03;;;;;;;4.07;1.03;;;9.60;97.90;;;;;;4978219;28;20458;-85
2022/11/22 12:35:40;;;;;;;3.20;0.80;;;9.50;98.20;;;;;;4978053;28;20478;-84
2022/11/22 12:38:14;;;;;;;3.50;0.97;;;9.40;97.80;;;;;;4978100;28;20454;-84
2022/11/22 12:40:43;;;;;;;3.78;0.90;;;9.40;99.10;;;;;;4975859;28;20466;-83
2022/11/22 12:43:17;;;;;;;5.70;1.00;;;9.20;97.80;;;;;;4976724;28;20195;-84
2022/11/22 12:45:49;;;;;;;3.30;0.90;;;9.30;98.80;;;;;;4977164;28;20454;-81
2022/11/22 12:48:21;;;;;;;5.10;2.27;;;9.20;97.70;;;;;;4977556;28;20461;-85